sensor_id;sensor_type;location;lat;lon;timestamp;P1;durP1;ratioP1;P2;durP2;ratioP2
77769;SDS011;66961;51.482;9.160;2024-03-02T00:02:07;10.55;;;7.28;;
77769;SDS011;66961;51.482;9.160;2024-03-02T00:04:32;10.53;;;7.30;;
77769;SDS011;66961;51.482;9.160;2024-03-02T00:06:57;10.45;;;6.65;;
77769;SDS011;66961;51.482;9.160;2024-03-02T00:09:22;11.97;;;7.07;;
77769;SDS011;66961;51.482;9.160;2024-03-02T00:11:48;9.88;;;6.32;;
77769;SDS011;66961;51.482;9.160;2024-03-02T00:14:14;11.02;;;6.63;;
77769;SDS011;66961;51.482;9.160;2024-03-02T00:16:40;10.85;;;6.72;;
77769;SDS011;66961;51.482;9.160;2024-03-02T00:19:06;11.55;;;7.15;;
77769;SDS011;66961;51.482;9.160;2024-03-02T00:21:32;9.13;;;6.28;;
77769;SDS011;66961;51.482;9.160;2024-03-02T00:23:58;8.80;;;6.40;;
77769;SDS011;66961;51.482;9.160;2024-03-02T00:26:24;10.98;;;6.40;;
77769;SDS011;66961;51.482;9.160;2024-03-02T00:28:50;8.05;;;5.75;;
77769;SDS011;66961;51.482;9.160;2024-03-02T00:31:20;10.95;;;6.38;;
77769;SDS011;66961;51.482;9.160;2024-03-02T00:33:46;8.63;;;5.97;;
77769;SDS011;66961;51.482;9.160;2024-03-02T00:36:16;11.05;;;6.28;;
77769;SDS011;66961;51.482;9.160;2024-03-02T00:38:48;9.48;;;6.35;;
77769;SDS011;66961;51.482;9.160;2024-03-02T00:41:22;11.00;;;6.50;;
77769;SDS011;66961;51.482;9.160;2024-03-02T00:43:57;11.75;;;6.43;;
77769;SDS011;66961;51.482;9.160;2024-03-02T00:46:23;11.52;;;6.68;;
77769;SDS011;66961;51.482;9.160;2024-03-02T00:48:52;10.15;;;6.05;;
77769;SDS011;66961;51.482;9.160;2024-03-02T00:51:22;10.20;;;6.53;;
77769;SDS011;66961;51.482;9.160;2024-03-02T00:53:49;10.55;;;6.32;;
77769;SDS011;66961;51.482;9.160;2024-03-02T00:56:15;10.48;;;6.63;;
77769;SDS011;66961;51.482;9.160;2024-03-02T00:58:42;9.15;;;5.63;;
77769;SDS011;66961;51.482;9.160;2024-03-02T01:01:07;11.05;;;6.45;;
77769;SDS011;66961;51.482;9.160;2024-03-02T01:03:33;9.23;;;6.00;;
77769;SDS011;66961;51.482;9.160;2024-03-02T01:05:59;8.82;;;6.30;;
77769;SDS011;66961;51.482;9.160;2024-03-02T01:08:24;10.52;;;6.45;;
77769;SDS011;66961;51.482;9.160;2024-03-02T01:10:50;8.80;;;5.72;;
77769;SDS011;66961;51.482;9.160;2024-03-02T01:13:15;9.27;;;6.07;;
77769;SDS011;66961;51.482;9.160;2024-03-02T01:15:40;9.33;;;5.53;;
77769;SDS011;66961;51.482;9.160;2024-03-02T01:18:06;9.67;;;5.97;;
77769;SDS011;66961;51.482;9.160;2024-03-02T01:20:31;9.63;;;6.03;;
77769;SDS011;66961;51.482;9.160;2024-03-02T01:22:56;10.35;;;6.53;;
77769;SDS011;66961;51.482;9.160;2024-03-02T01:25:22;9.87;;;6.27;;
77769;SDS011;66961;51.482;9.160;2024-03-02T01:27:47;12.03;;;6.53;;
77769;SDS011;66961;51.482;9.160;2024-03-02T01:30:12;11.57;;;6.53;;
77769;SDS011;66961;51.482;9.160;2024-03-02T01:32:38;10.43;;;6.57;;
77769;SDS011;66961;51.482;9.160;2024-03-02T01:35:03;12.15;;;6.97;;
77769;SDS011;66961;51.482;9.160;2024-03-02T01:37:29;11.32;;;6.43;;
77769;SDS011;66961;51.482;9.160;2024-03-02T01:39:55;9.40;;;6.50;;
77769;SDS011;66961;51.482;9.160;2024-03-02T01:42:20;11.17;;;6.60;;
77769;SDS011;66961;51.482;9.160;2024-03-02T01:44:45;10.40;;;6.45;;
77769;SDS011;66961;51.482;9.160;2024-03-02T01:47:11;10.02;;;6.45;;
77769;SDS011;66961;51.482;9.160;2024-03-02T01:49:36;12.98;;;6.80;;
77769;SDS011;66961;51.482;9.160;2024-03-02T01:52:02;11.65;;;6.93;;
77769;SDS011;66961;51.482;9.160;2024-03-02T01:54:27;10.48;;;7.10;;
77769;SDS011;66961;51.482;9.160;2024-03-02T01:56:52;11.65;;;7.60;;
77769;SDS011;66961;51.482;9.160;2024-03-02T01:59:18;14.87;;;6.83;;
77769;SDS011;66961;51.482;9.160;2024-03-02T02:01:43;10.88;;;6.75;;
77769;SDS011;66961;51.482;9.160;2024-03-02T02:04:08;10.63;;;6.87;;
77769;SDS011;66961;51.482;9.160;2024-03-02T02:06:34;13.77;;;7.57;;
77769;SDS011;66961;51.482;9.160;2024-03-02T02:08:59;14.13;;;7.47;;
77769;SDS011;66961;51.482;9.160;2024-03-02T02:11:25;12.00;;;7.40;;
77769;SDS011;66961;51.482;9.160;2024-03-02T02:13:50;11.90;;;6.90;;
77769;SDS011;66961;51.482;9.160;2024-03-02T02:16:15;13.77;;;7.10;;
77769;SDS011;66961;51.482;9.160;2024-03-02T02:18:41;12.13;;;6.70;;
77769;SDS011;66961;51.482;9.160;2024-03-02T02:21:06;10.27;;;7.13;;
77769;SDS011;66961;51.482;9.160;2024-03-02T02:23:31;10.60;;;6.43;;
77769;SDS011;66961;51.482;9.160;2024-03-02T02:25:56;14.63;;;6.80;;
77769;SDS011;66961;51.482;9.160;2024-03-02T02:28:22;14.07;;;7.97;;
77769;SDS011;66961;51.482;9.160;2024-03-02T02:30:47;12.83;;;7.73;;
77769;SDS011;66961;51.482;9.160;2024-03-02T02:33:12;11.80;;;7.70;;
77769;SDS011;66961;51.482;9.160;2024-03-02T02:35:37;12.37;;;7.63;;
77769;SDS011;66961;51.482;9.160;2024-03-02T02:38:03;14.27;;;7.70;;
77769;SDS011;66961;51.482;9.160;2024-03-02T02:40:29;14.65;;;8.82;;
77769;SDS011;66961;51.482;9.160;2024-03-02T02:42:54;15.25;;;8.02;;
77769;SDS011;66961;51.482;9.160;2024-03-02T02:45:19;13.93;;;8.30;;
77769;SDS011;66961;51.482;9.160;2024-03-02T02:47:45;16.17;;;8.32;;
77769;SDS011;66961;51.482;9.160;2024-03-02T02:50:11;14.57;;;8.40;;
77769;SDS011;66961;51.482;9.160;2024-03-02T02:52:38;13.68;;;8.45;;
77769;SDS011;66961;51.482;9.160;2024-03-02T02:55:05;16.70;;;9.05;;
77769;SDS011;66961;51.482;9.160;2024-03-02T02:57:32;16.88;;;8.70;;
77769;SDS011;66961;51.482;9.160;2024-03-02T02:59:58;15.07;;;8.77;;
77769;SDS011;66961;51.482;9.160;2024-03-02T03:02:23;16.90;;;9.17;;
77769;SDS011;66961;51.482;9.160;2024-03-02T03:04:48;17.67;;;9.30;;
77769;SDS011;66961;51.482;9.160;2024-03-02T03:07:13;15.33;;;8.80;;
77769;SDS011;66961;51.482;9.160;2024-03-02T03:09:39;18.70;;;10.55;;
77769;SDS011;66961;51.482;9.160;2024-03-02T03:12:04;19.17;;;9.43;;
77769;SDS011;66961;51.482;9.160;2024-03-02T03:14:29;15.38;;;8.80;;
77769;SDS011;66961;51.482;9.160;2024-03-02T03:16:55;16.98;;;9.23;;
77769;SDS011;66961;51.482;9.160;2024-03-02T03:19:21;19.47;;;10.53;;
77769;SDS011;66961;51.482;9.160;2024-03-02T03:21:46;15.67;;;9.73;;
77769;SDS011;66961;51.482;9.160;2024-03-02T03:24:11;18.47;;;9.83;;
77769;SDS011;66961;51.482;9.160;2024-03-02T03:26:36;19.33;;;10.00;;
77769;SDS011;66961;51.482;9.160;2024-03-02T03:29:02;19.80;;;11.70;;
77769;SDS011;66961;51.482;9.160;2024-03-02T03:31:27;22.02;;;11.23;;
77769;SDS011;66961;51.482;9.160;2024-03-02T03:33:52;25.13;;;12.15;;
77769;SDS011;66961;51.482;9.160;2024-03-02T03:36:18;23.23;;;12.67;;
77769;SDS011;66961;51.482;9.160;2024-03-02T03:38:43;24.37;;;12.60;;
77769;SDS011;66961;51.482;9.160;2024-03-02T03:41:08;24.40;;;13.10;;
77769;SDS011;66961;51.482;9.160;2024-03-02T03:43:33;25.97;;;13.40;;
77769;SDS011;66961;51.482;9.160;2024-03-02T03:45:59;27.23;;;14.10;;
77769;SDS011;66961;51.482;9.160;2024-03-02T03:48:24;23.80;;;14.23;;
77769;SDS011;66961;51.482;9.160;2024-03-02T03:50:49;29.77;;;15.00;;
77769;SDS011;66961;51.482;9.160;2024-03-02T03:53:14;29.60;;;14.77;;
77769;SDS011;66961;51.482;9.160;2024-03-02T03:55:40;25.93;;;13.40;;
77769;SDS011;66961;51.482;9.160;2024-03-02T03:58:05;25.57;;;14.13;;
77769;SDS011;66961;51.482;9.160;2024-03-02T04:00:30;27.77;;;14.70;;
77769;SDS011;66961;51.482;9.160;2024-03-02T04:02:55;28.40;;;14.37;;
77769;SDS011;66961;51.482;9.160;2024-03-02T04:05:21;29.47;;;15.03;;
77769;SDS011;66961;51.482;9.160;2024-03-02T04:07:46;30.80;;;15.60;;
77769;SDS011;66961;51.482;9.160;2024-03-02T04:10:11;28.60;;;15.10;;
77769;SDS011;66961;51.482;9.160;2024-03-02T04:12:36;29.13;;;15.10;;
77769;SDS011;66961;51.482;9.160;2024-03-02T04:15:03;29.77;;;15.50;;
77769;SDS011;66961;51.482;9.160;2024-03-02T04:17:30;31.55;;;16.13;;
77769;SDS011;66961;51.482;9.160;2024-03-02T04:19:57;29.95;;;15.18;;
77769;SDS011;66961;51.482;9.160;2024-03-02T04:22:22;29.63;;;14.97;;
77769;SDS011;66961;51.482;9.160;2024-03-02T04:24:47;28.27;;;15.13;;
77769;SDS011;66961;51.482;9.160;2024-03-02T04:27:12;27.80;;;13.77;;
77769;SDS011;66961;51.482;9.160;2024-03-02T04:29:38;28.80;;;14.53;;
77769;SDS011;66961;51.482;9.160;2024-03-02T04:32:03;30.07;;;14.57;;
77769;SDS011;66961;51.482;9.160;2024-03-02T04:34:28;28.63;;;15.15;;
77769;SDS011;66961;51.482;9.160;2024-03-02T04:36:54;32.90;;;15.63;;
77769;SDS011;66961;51.482;9.160;2024-03-02T04:39:20;26.77;;;14.70;;
77769;SDS011;66961;51.482;9.160;2024-03-02T04:41:45;30.67;;;15.37;;
77769;SDS011;66961;51.482;9.160;2024-03-02T04:44:10;28.67;;;14.87;;
77769;SDS011;66961;51.482;9.160;2024-03-02T04:46:36;24.77;;;12.77;;
77769;SDS011;66961;51.482;9.160;2024-03-02T04:49:01;29.53;;;14.40;;
77769;SDS011;66961;51.482;9.160;2024-03-02T04:51:26;28.90;;;14.40;;
77769;SDS011;66961;51.482;9.160;2024-03-02T04:53:52;26.63;;;14.00;;
77769;SDS011;66961;51.482;9.160;2024-03-02T04:56:17;28.77;;;14.00;;
77769;SDS011;66961;51.482;9.160;2024-03-02T04:58:42;30.17;;;14.40;;
77769;SDS011;66961;51.482;9.160;2024-03-02T05:01:07;30.70;;;14.17;;
77769;SDS011;66961;51.482;9.160;2024-03-02T05:03:32;26.60;;;14.37;;
77769;SDS011;66961;51.482;9.160;2024-03-02T05:05:58;30.37;;;14.53;;
77769;SDS011;66961;51.482;9.160;2024-03-02T05:08:23;28.57;;;13.70;;
77769;SDS011;66961;51.482;9.160;2024-03-02T05:10:48;27.67;;;13.40;;
77769;SDS011;66961;51.482;9.160;2024-03-02T05:13:13;28.07;;;13.93;;
77769;SDS011;66961;51.482;9.160;2024-03-02T05:15:39;29.37;;;14.47;;
77769;SDS011;66961;51.482;9.160;2024-03-02T05:18:04;26.53;;;13.30;;
77769;SDS011;66961;51.482;9.160;2024-03-02T05:20:29;28.27;;;15.02;;
77769;SDS011;66961;51.482;9.160;2024-03-02T05:22:55;29.90;;;14.77;;
77769;SDS011;66961;51.482;9.160;2024-03-02T05:25:20;30.33;;;15.00;;
77769;SDS011;66961;51.482;9.160;2024-03-02T05:27:45;34.73;;;15.37;;
77769;SDS011;66961;51.482;9.160;2024-03-02T05:30:10;31.47;;;15.63;;
77769;SDS011;66961;51.482;9.160;2024-03-02T05:32:36;31.50;;;15.82;;
77769;SDS011;66961;51.482;9.160;2024-03-02T05:35:01;30.07;;;14.80;;
77769;SDS011;66961;51.482;9.160;2024-03-02T05:37:27;32.27;;;16.13;;
77769;SDS011;66961;51.482;9.160;2024-03-02T05:39:52;33.30;;;15.90;;
77769;SDS011;66961;51.482;9.160;2024-03-02T05:42:17;34.87;;;15.73;;
77769;SDS011;66961;51.482;9.160;2024-03-02T05:44:42;33.47;;;15.27;;
77769;SDS011;66961;51.482;9.160;2024-03-02T05:47:08;33.27;;;15.93;;
77769;SDS011;66961;51.482;9.160;2024-03-02T05:49:33;35.30;;;15.67;;
77769;SDS011;66961;51.482;9.160;2024-03-02T05:51:58;35.20;;;16.53;;
77769;SDS011;66961;51.482;9.160;2024-03-02T05:54:23;35.83;;;15.63;;
77769;SDS011;66961;51.482;9.160;2024-03-02T05:56:49;39.50;;;18.33;;
77769;SDS011;66961;51.482;9.160;2024-03-02T05:59:14;32.27;;;15.70;;
77769;SDS011;66961;51.482;9.160;2024-03-02T06:01:39;34.27;;;16.83;;
77769;SDS011;66961;51.482;9.160;2024-03-02T06:04:06;39.22;;;17.67;;
77769;SDS011;66961;51.482;9.160;2024-03-02T06:06:31;36.77;;;17.37;;
77769;SDS011;66961;51.482;9.160;2024-03-02T06:08:57;39.10;;;18.20;;
77769;SDS011;66961;51.482;9.160;2024-03-02T06:11:22;38.53;;;18.20;;
77769;SDS011;66961;51.482;9.160;2024-03-02T06:13:48;41.80;;;18.80;;
77769;SDS011;66961;51.482;9.160;2024-03-02T06:16:13;41.53;;;18.90;;
77769;SDS011;66961;51.482;9.160;2024-03-02T06:18:38;42.10;;;19.47;;
77769;SDS011;66961;51.482;9.160;2024-03-02T06:21:04;43.57;;;19.00;;
77769;SDS011;66961;51.482;9.160;2024-03-02T06:23:29;43.58;;;19.33;;
77769;SDS011;66961;51.482;9.160;2024-03-02T06:25:54;49.20;;;20.53;;
77769;SDS011;66961;51.482;9.160;2024-03-02T06:28:20;41.45;;;17.52;;
77769;SDS011;66961;51.482;9.160;2024-03-02T06:30:45;42.47;;;19.13;;
77769;SDS011;66961;51.482;9.160;2024-03-02T06:33:10;39.57;;;19.20;;
77769;SDS011;66961;51.482;9.160;2024-03-02T06:35:36;42.50;;;19.95;;
77769;SDS011;66961;51.482;9.160;2024-03-02T06:38:01;35.33;;;16.95;;
77769;SDS011;66961;51.482;9.160;2024-03-02T06:40:27;35.70;;;18.30;;
77769;SDS011;66961;51.482;9.160;2024-03-02T06:42:52;34.88;;;17.30;;
77769;SDS011;66961;51.482;9.160;2024-03-02T06:45:17;37.83;;;17.92;;
77769;SDS011;66961;51.482;9.160;2024-03-02T06:47:43;36.22;;;17.40;;
77769;SDS011;66961;51.482;9.160;2024-03-02T06:50:08;36.30;;;16.67;;
77769;SDS011;66961;51.482;9.160;2024-03-02T06:52:34;35.17;;;17.10;;
77769;SDS011;66961;51.482;9.160;2024-03-02T06:54:59;31.87;;;14.93;;
77769;SDS011;66961;51.482;9.160;2024-03-02T06:57:24;33.10;;;15.60;;
77769;SDS011;66961;51.482;9.160;2024-03-02T06:59:50;30.47;;;15.97;;
77769;SDS011;66961;51.482;9.160;2024-03-02T07:02:15;33.80;;;15.60;;
77769;SDS011;66961;51.482;9.160;2024-03-02T07:04:40;34.07;;;17.70;;
77769;SDS011;66961;51.482;9.160;2024-03-02T07:07:06;32.03;;;15.60;;
77769;SDS011;66961;51.482;9.160;2024-03-02T07:09:31;30.47;;;15.73;;
77769;SDS011;66961;51.482;9.160;2024-03-02T07:11:56;32.13;;;16.50;;
77769;SDS011;66961;51.482;9.160;2024-03-02T07:14:21;31.10;;;15.87;;
77769;SDS011;66961;51.482;9.160;2024-03-02T07:16:47;34.17;;;16.20;;
77769;SDS011;66961;51.482;9.160;2024-03-02T07:19:12;35.53;;;16.40;;
77769;SDS011;66961;51.482;9.160;2024-03-02T07:21:37;35.00;;;16.27;;
77769;SDS011;66961;51.482;9.160;2024-03-02T07:24:02;29.53;;;15.60;;
77769;SDS011;66961;51.482;9.160;2024-03-02T07:26:28;31.67;;;16.27;;
77769;SDS011;66961;51.482;9.160;2024-03-02T07:28:54;33.53;;;16.63;;
77769;SDS011;66961;51.482;9.160;2024-03-02T07:31:20;31.80;;;16.70;;
77769;SDS011;66961;51.482;9.160;2024-03-02T07:33:45;28.10;;;15.60;;
77769;SDS011;66961;51.482;9.160;2024-03-02T07:36:10;29.48;;;15.02;;
77769;SDS011;66961;51.482;9.160;2024-03-02T07:38:36;22.38;;;13.40;;
77769;SDS011;66961;51.482;9.160;2024-03-02T07:41:01;23.27;;;13.40;;
77769;SDS011;66961;51.482;9.160;2024-03-02T07:43:26;21.27;;;12.25;;
77769;SDS011;66961;51.482;9.160;2024-03-02T07:45:52;22.17;;;12.65;;
77769;SDS011;66961;51.482;9.160;2024-03-02T07:48:17;20.67;;;12.45;;
77769;SDS011;66961;51.482;9.160;2024-03-02T07:50:43;26.98;;;13.48;;
77769;SDS011;66961;51.482;9.160;2024-03-02T07:53:08;21.07;;;12.40;;
77769;SDS011;66961;51.482;9.160;2024-03-02T07:55:34;21.15;;;12.13;;
77769;SDS011;66961;51.482;9.160;2024-03-02T07:58:00;17.35;;;10.88;;
77769;SDS011;66961;51.482;9.160;2024-03-02T08:00:25;17.20;;;11.07;;
77769;SDS011;66961;51.482;9.160;2024-03-02T08:02:51;23.60;;;12.57;;
77769;SDS011;66961;51.482;9.160;2024-03-02T08:05:17;20.10;;;12.20;;
77769;SDS011;66961;51.482;9.160;2024-03-02T08:07:43;19.02;;;11.50;;
77769;SDS011;66961;51.482;9.160;2024-03-02T08:10:09;23.02;;;11.57;;
77769;SDS011;66961;51.482;9.160;2024-03-02T08:12:34;22.67;;;12.75;;
77769;SDS011;66961;51.482;9.160;2024-03-02T08:14:59;22.17;;;11.43;;
77769;SDS011;66961;51.482;9.160;2024-03-02T08:17:24;22.20;;;13.37;;
77769;SDS011;66961;51.482;9.160;2024-03-02T08:19:50;22.60;;;11.97;;
77769;SDS011;66961;51.482;9.160;2024-03-02T08:22:15;21.57;;;12.30;;
77769;SDS011;66961;51.482;9.160;2024-03-02T08:24:40;21.60;;;12.13;;
77769;SDS011;66961;51.482;9.160;2024-03-02T08:27:06;22.25;;;12.70;;
77769;SDS011;66961;51.482;9.160;2024-03-02T08:29:31;21.60;;;12.15;;
77769;SDS011;66961;51.482;9.160;2024-03-02T08:31:57;21.40;;;12.52;;
77769;SDS011;66961;51.482;9.160;2024-03-02T08:34:22;23.33;;;12.93;;
77769;SDS011;66961;51.482;9.160;2024-03-02T08:36:47;22.50;;;13.57;;
77769;SDS011;66961;51.482;9.160;2024-03-02T08:39:13;23.60;;;12.55;;
77769;SDS011;66961;51.482;9.160;2024-03-02T08:41:38;22.13;;;12.73;;
77769;SDS011;66961;51.482;9.160;2024-03-02T08:44:04;22.60;;;12.80;;
77769;SDS011;66961;51.482;9.160;2024-03-02T08:46:29;38.73;;;22.03;;
77769;SDS011;66961;51.482;9.160;2024-03-02T08:48:54;45.47;;;25.13;;
77769;SDS011;66961;51.482;9.160;2024-03-02T08:51:19;38.33;;;19.87;;
77769;SDS011;66961;51.482;9.160;2024-03-02T08:53:45;35.20;;;19.97;;
77769;SDS011;66961;51.482;9.160;2024-03-02T08:56:10;32.53;;;17.67;;
77769;SDS011;66961;51.482;9.160;2024-03-02T08:58:35;30.73;;;17.07;;
77769;SDS011;66961;51.482;9.160;2024-03-02T09:01:00;31.23;;;16.63;;
77769;SDS011;66961;51.482;9.160;2024-03-02T09:03:26;29.85;;;16.02;;
77769;SDS011;66961;51.482;9.160;2024-03-02T09:05:52;26.70;;;15.05;;
77769;SDS011;66961;51.482;9.160;2024-03-02T09:08:17;26.67;;;14.13;;
77769;SDS011;66961;51.482;9.160;2024-03-02T09:10:42;26.37;;;14.23;;
77769;SDS011;66961;51.482;9.160;2024-03-02T09:13:07;26.33;;;14.33;;
77769;SDS011;66961;51.482;9.160;2024-03-02T09:15:33;28.13;;;14.80;;
77769;SDS011;66961;51.482;9.160;2024-03-02T09:17:58;23.53;;;13.80;;
77769;SDS011;66961;51.482;9.160;2024-03-02T09:20:23;27.43;;;15.00;;
77769;SDS011;66961;51.482;9.160;2024-03-02T09:22:48;22.37;;;13.17;;
77769;SDS011;66961;51.482;9.160;2024-03-02T09:25:14;19.33;;;11.27;;
77769;SDS011;66961;51.482;9.160;2024-03-02T09:27:39;21.35;;;12.18;;
77769;SDS011;66961;51.482;9.160;2024-03-02T09:30:07;17.83;;;10.70;;
77769;SDS011;66961;51.482;9.160;2024-03-02T09:32:32;17.65;;;10.63;;
77769;SDS011;66961;51.482;9.160;2024-03-02T09:34:58;16.97;;;9.97;;
77769;SDS011;66961;51.482;9.160;2024-03-02T09:37:23;16.48;;;10.18;;
77769;SDS011;66961;51.482;9.160;2024-03-02T09:39:48;17.03;;;9.23;;
77769;SDS011;66961;51.482;9.160;2024-03-02T09:42:14;14.07;;;9.10;;
77769;SDS011;66961;51.482;9.160;2024-03-02T09:44:39;14.50;;;8.30;;
77769;SDS011;66961;51.482;9.160;2024-03-02T09:47:06;11.63;;;7.28;;
77769;SDS011;66961;51.482;9.160;2024-03-02T09:49:32;10.23;;;6.57;;
77769;SDS011;66961;51.482;9.160;2024-03-02T09:51:57;9.93;;;6.17;;
77769;SDS011;66961;51.482;9.160;2024-03-02T09:54:22;10.70;;;6.40;;
77769;SDS011;66961;51.482;9.160;2024-03-02T09:56:47;10.43;;;6.57;;
77769;SDS011;66961;51.482;9.160;2024-03-02T09:59:13;10.67;;;6.20;;
77769;SDS011;66961;51.482;9.160;2024-03-02T10:01:38;9.43;;;6.40;;
77769;SDS011;66961;51.482;9.160;2024-03-02T10:04:03;10.48;;;6.35;;
77769;SDS011;66961;51.482;9.160;2024-03-02T10:06:30;10.70;;;7.00;;
77769;SDS011;66961;51.482;9.160;2024-03-02T10:08:55;13.77;;;6.63;;
77769;SDS011;66961;51.482;9.160;2024-03-02T10:11:31;10.18;;;6.80;;
77769;SDS011;66961;51.482;9.160;2024-03-02T10:16:29;10.90;;;7.00;;
77769;SDS011;66961;51.482;9.160;2024-03-02T10:18:55;12.82;;;6.50;;
77769;SDS011;66961;51.482;9.160;2024-03-02T10:21:20;13.07;;;6.67;;
77769;SDS011;66961;51.482;9.160;2024-03-02T10:23:45;9.10;;;5.87;;
77769;SDS011;66961;51.482;9.160;2024-03-02T10:26:17;9.27;;;6.03;;
77769;SDS011;66961;51.482;9.160;2024-03-02T10:28:46;9.98;;;5.93;;
77769;SDS011;66961;51.482;9.160;2024-03-02T10:31:12;10.50;;;6.55;;
77769;SDS011;66961;51.482;9.160;2024-03-02T10:33:38;11.10;;;6.10;;
77769;SDS011;66961;51.482;9.160;2024-03-02T10:36:03;10.02;;;6.60;;
77769;SDS011;66961;51.482;9.160;2024-03-02T10:38:29;9.10;;;5.20;;
77769;SDS011;66961;51.482;9.160;2024-03-02T10:40:55;9.15;;;5.75;;
77769;SDS011;66961;51.482;9.160;2024-03-02T10:43:22;9.82;;;5.80;;
77769;SDS011;66961;51.482;9.160;2024-03-02T10:45:49;9.32;;;5.97;;
77769;SDS011;66961;51.482;9.160;2024-03-02T10:48:14;10.10;;;5.97;;
77769;SDS011;66961;51.482;9.160;2024-03-02T10:50:40;9.07;;;5.60;;
77769;SDS011;66961;51.482;9.160;2024-03-02T10:53:05;9.93;;;5.60;;
77769;SDS011;66961;51.482;9.160;2024-03-02T10:55:31;10.00;;;6.07;;
77769;SDS011;66961;51.482;9.160;2024-03-02T10:57:56;10.00;;;5.95;;
77769;SDS011;66961;51.482;9.160;2024-03-02T11:00:25;9.52;;;5.97;;
77769;SDS011;66961;51.482;9.160;2024-03-02T11:02:58;10.07;;;6.18;;
77769;SDS011;66961;51.482;9.160;2024-03-02T11:05:31;8.95;;;5.60;;
77769;SDS011;66961;51.482;9.160;2024-03-02T11:08:02;8.45;;;5.65;;
77769;SDS011;66961;51.482;9.160;2024-03-02T11:10:34;10.35;;;6.32;;
77769;SDS011;66961;51.482;9.160;2024-03-02T11:13:02;7.45;;;5.38;;
77769;SDS011;66961;51.482;9.160;2024-03-02T11:15:30;8.90;;;5.72;;
77769;SDS011;66961;51.482;9.160;2024-03-02T11:17:56;9.10;;;6.15;;
77769;SDS011;66961;51.482;9.160;2024-03-02T11:20:22;8.40;;;5.88;;
77769;SDS011;66961;51.482;9.160;2024-03-02T11:22:48;7.70;;;5.60;;
77769;SDS011;66961;51.482;9.160;2024-03-02T11:25:27;7.38;;;5.05;;
77769;SDS011;66961;51.482;9.160;2024-03-02T11:30:51;8.83;;;5.40;;
77769;SDS011;66961;51.482;9.160;2024-03-02T11:33:09;7.90;;;4.72;;
77769;SDS011;66961;51.482;9.160;2024-03-02T11:35:35;8.60;;;5.20;;
77769;SDS011;66961;51.482;9.160;2024-03-02T11:38:01;6.78;;;4.88;;
77769;SDS011;66961;51.482;9.160;2024-03-02T11:40:27;9.27;;;5.18;;
77769;SDS011;66961;51.482;9.160;2024-03-02T11:42:53;7.55;;;5.20;;
77769;SDS011;66961;51.482;9.160;2024-03-02T11:45:27;7.75;;;5.22;;
77769;SDS011;66961;51.482;9.160;2024-03-02T11:47:53;7.10;;;4.90;;
77769;SDS011;66961;51.482;9.160;2024-03-02T11:50:29;8.15;;;5.18;;
77769;SDS011;66961;51.482;9.160;2024-03-02T11:52:56;9.27;;;5.53;;
77769;SDS011;66961;51.482;9.160;2024-03-02T11:55:23;7.50;;;5.20;;
77769;SDS011;66961;51.482;9.160;2024-03-02T11:57:50;6.90;;;4.72;;
77769;SDS011;66961;51.482;9.160;2024-03-02T12:00:17;7.75;;;5.15;;
77769;SDS011;66961;51.482;9.160;2024-03-02T12:02:43;8.80;;;4.88;;
77769;SDS011;66961;51.482;9.160;2024-03-02T12:05:08;7.40;;;4.70;;
77769;SDS011;66961;51.482;9.160;2024-03-02T12:07:34;9.02;;;5.22;;
77769;SDS011;66961;51.482;9.160;2024-03-02T12:10:00;7.65;;;4.55;;
77769;SDS011;66961;51.482;9.160;2024-03-02T12:12:25;7.18;;;4.63;;
77769;SDS011;66961;51.482;9.160;2024-03-02T12:14:51;5.97;;;4.50;;
77769;SDS011;66961;51.482;9.160;2024-03-02T12:17:17;8.80;;;4.90;;
77769;SDS011;66961;51.482;9.160;2024-03-02T12:19:42;8.80;;;4.88;;
77769;SDS011;66961;51.482;9.160;2024-03-02T12:22:08;8.40;;;4.77;;
77769;SDS011;66961;51.482;9.160;2024-03-02T12:24:33;7.20;;;4.70;;
77769;SDS011;66961;51.482;9.160;2024-03-02T12:26:59;6.57;;;4.57;;
77769;SDS011;66961;51.482;9.160;2024-03-02T12:29:24;6.80;;;4.07;;
77769;SDS011;66961;51.482;9.160;2024-03-02T12:31:50;5.40;;;3.53;;
77769;SDS011;66961;51.482;9.160;2024-03-02T12:34:17;6.43;;;4.30;;
77769;SDS011;66961;51.482;9.160;2024-03-02T12:36:42;6.05;;;4.22;;
77769;SDS011;66961;51.482;9.160;2024-03-02T12:39:08;5.93;;;4.22;;
77769;SDS011;66961;51.482;9.160;2024-03-02T12:41:35;7.43;;;4.65;;
77769;SDS011;66961;51.482;9.160;2024-03-02T12:44:01;5.93;;;3.92;;
77769;SDS011;66961;51.482;9.160;2024-03-02T12:46:26;6.60;;;3.47;;
77769;SDS011;66961;51.482;9.160;2024-03-02T12:48:52;5.73;;;3.93;;
77769;SDS011;66961;51.482;9.160;2024-03-02T12:51:17;5.97;;;3.83;;
77769;SDS011;66961;51.482;9.160;2024-03-02T12:53:42;6.57;;;4.33;;
77769;SDS011;66961;51.482;9.160;2024-03-02T12:56:08;5.75;;;4.05;;
77769;SDS011;66961;51.482;9.160;2024-03-02T12:58:38;6.03;;;4.35;;
77769;SDS011;66961;51.482;9.160;2024-03-02T13:01:09;6.43;;;3.83;;
77769;SDS011;66961;51.482;9.160;2024-03-02T13:03:36;5.65;;;3.70;;
77769;SDS011;66961;51.482;9.160;2024-03-02T13:06:02;7.15;;;4.38;;
77769;SDS011;66961;51.482;9.160;2024-03-02T13:08:29;5.28;;;3.30;;
77769;SDS011;66961;51.482;9.160;2024-03-02T13:10:54;4.82;;;3.30;;
77769;SDS011;66961;51.482;9.160;2024-03-02T13:13:19;4.78;;;3.35;;
77769;SDS011;66961;51.482;9.160;2024-03-02T13:15:45;4.70;;;3.30;;
77769;SDS011;66961;51.482;9.160;2024-03-02T13:18:10;5.07;;;2.97;;
77769;SDS011;66961;51.482;9.160;2024-03-02T13:20:36;4.47;;;2.78;;
77769;SDS011;66961;51.482;9.160;2024-03-02T13:23:01;5.43;;;3.23;;
77769;SDS011;66961;51.482;9.160;2024-03-02T13:25:27;3.30;;;2.33;;
77769;SDS011;66961;51.482;9.160;2024-03-02T13:27:52;5.97;;;2.40;;
77769;SDS011;66961;51.482;9.160;2024-03-02T13:30:17;6.70;;;2.35;;
77769;SDS011;66961;51.482;9.160;2024-03-02T13:32:43;3.70;;;2.53;;
77769;SDS011;66961;51.482;9.160;2024-03-02T13:35:08;4.17;;;2.37;;
77769;SDS011;66961;51.482;9.160;2024-03-02T13:37:33;5.47;;;2.50;;
77769;SDS011;66961;51.482;9.160;2024-03-02T13:39:59;3.40;;;1.77;;
77769;SDS011;66961;51.482;9.160;2024-03-02T13:42:24;3.97;;;2.40;;
77769;SDS011;66961;51.482;9.160;2024-03-02T13:44:49;2.97;;;2.10;;
77769;SDS011;66961;51.482;9.160;2024-03-02T13:47:15;3.42;;;2.13;;
77769;SDS011;66961;51.482;9.160;2024-03-02T13:49:40;4.28;;;2.42;;
77769;SDS011;66961;51.482;9.160;2024-03-02T13:52:06;4.00;;;2.03;;
77769;SDS011;66961;51.482;9.160;2024-03-02T13:54:31;4.47;;;2.38;;
77769;SDS011;66961;51.482;9.160;2024-03-02T13:56:56;3.73;;;2.43;;
77769;SDS011;66961;51.482;9.160;2024-03-02T13:59:22;2.42;;;1.90;;
77769;SDS011;66961;51.482;9.160;2024-03-02T14:01:47;2.50;;;1.80;;
77769;SDS011;66961;51.482;9.160;2024-03-02T14:04:12;3.03;;;2.10;;
77769;SDS011;66961;51.482;9.160;2024-03-02T14:06:38;5.22;;;2.17;;
77769;SDS011;66961;51.482;9.160;2024-03-02T14:09:03;2.58;;;2.17;;
77769;SDS011;66961;51.482;9.160;2024-03-02T14:11:28;3.30;;;2.13;;
77769;SDS011;66961;51.482;9.160;2024-03-02T14:13:54;3.63;;;1.90;;
77769;SDS011;66961;51.482;9.160;2024-03-02T14:16:19;3.60;;;2.00;;
77769;SDS011;66961;51.482;9.160;2024-03-02T14:18:45;3.25;;;2.10;;
77769;SDS011;66961;51.482;9.160;2024-03-02T14:21:10;3.08;;;2.00;;
77769;SDS011;66961;51.482;9.160;2024-03-02T14:23:35;2.25;;;1.58;;
77769;SDS011;66961;51.482;9.160;2024-03-02T14:26:01;2.78;;;1.70;;
77769;SDS011;66961;51.482;9.160;2024-03-02T14:28:26;2.97;;;1.88;;
77769;SDS011;66961;51.482;9.160;2024-03-02T14:30:51;2.47;;;1.63;;